Time;durP1;ratioP1;P1;durP2;ratioP2;P2;SDS_P1;SDS_P2;PMS_P1;PMS_P2;Temp;Humidity;BMP_temperature;BMP_pressure;BME280_temperature;BME280_humidity;BME280_pressure;Samples;Min_cycle;Max_cycle;Signal;HPM_P1;HPM_P2
2022/08/16 00:00:20;;;;;;;51.00;27.80;;;;;;;;;;6119659;23;20022;-59
2022/08/16 00:02:48;;;;;;;50.10;28.75;;;;;;;;;;6120453;23;20033;-59
2022/08/16 00:05:18;;;;;;;357.58;39.65;;;;;;;;;;6119512;23;20076;-59
2022/08/16 00:08:00;;;;;;;44.40;25.75;;;;;;;;;;6119104;23;20101;-59
2022/08/16 00:10:34;;;;;;;54.45;26.65;;;;;;;;;;6119591;23;20521;-70
2022/08/16 00:13:09;;;;;;;92.97;31.80;;;;;;;;;;6119165;23;20029;-57
2022/08/16 00:15:36;;;;;;;;;;;;;;;;;;6119427;23;20026;-56
2022/08/16 00:18:24;;;;;;;87.00;31.02;;;;;;;;;;6120934;23;19923;-56
2022/08/16 00:20:59;;;;;;;53.88;25.55;;;;;;;;;;6121335;23;20407;-57
2022/08/16 00:23:30;;;;;;;38.15;24.38;;;;;;;;;;6122793;23;20024;-57
2022/08/16 00:26:06;;;;;;;98.80;34.08;;;;;;;;;;6098323;23;20108;-51
2022/08/16 00:29:00;;;;;;;57.92;30.33;;;;;;;;;;6120943;23;20022;-61
2022/08/16 00:31:29;;;;;;;54.33;29.70;;;;;;;;;;6122449;23;20021;-63
2022/08/16 00:34:23;;;;;;;53.40;29.00;;;;;;;;;;6121384;23;20109;-63
2022/08/16 00:37:10;;;;;;;50.65;29.75;;;;;;;;;;6120283;23;20113;-63
2022/08/16 00:39:45;;;;;;;52.92;29.70;;;;;;;;;;6120605;23;20084;-63
2022/08/16 00:42:14;;;;;;;50.80;30.63;;;;;;;;;;6121287;23;20022;-63
2022/08/16 00:45:01;;;;;;;59.10;31.20;;;;;;;;;;6118105;23;20022;-63
2022/08/16 00:47:41;;;;;;;61.65;29.85;;;;;;;;;;6121011;23;20021;-59
2022/08/16 00:50:15;;;;;;;78.07;35.37;;;;;;;;;;6121470;23;20096;-60
2022/08/16 00:53:03;;;;;;;165.90;37.50;;;;;;;;;;6120911;23;20025;-60
2022/08/16 00:55:31;;;;;;;56.13;30.42;;;;;;;;;;6120620;23;20017;-60
2022/08/16 00:58:06;;;;;;;57.65;31.92;;;;;;;;;;6121268;23;20538;-59
2022/08/16 01:00:44;;;;;;;51.67;29.27;;;;;;;;;;6121710;23;20074;-60
2022/08/16 01:03:22;;;;;;;55.10;31.95;;;;;;;;;;6121101;23;20022;-60
2022/08/16 01:05:56;;;;;;;54.30;31.27;;;;;;;;;;6120615;23;20076;-47
2022/08/16 01:08:52;;;;;;;83.47;38.22;;;;;;;;;;6120934;23;20115;-63
2022/08/16 01:11:22;;;;;;;412.23;45.63;;;;;;;;;;6121087;23;20471;-55
2022/08/16 01:14:00;;;;;;;356.08;41.40;;;;;;;;;;6119314;23;20053;-56
2022/08/16 01:16:28;;;;;;;70.07;33.83;;;;;;;;;;6121367;23;20021;-53
2022/08/16 01:18:56;;;;;;;64.22;31.77;;;;;;;;;;6118833;23;20022;-55
2022/08/16 01:21:36;;;;;;;70.35;33.22;;;;;;;;;;6121764;23;20022;-51
2022/08/16 01:24:27;;;;;;;55.97;32.83;;;;;;;;;;6120874;23;20025;-54
2022/08/16 01:27:25;;;;;;;443.45;41.05;;;;;;;;;;6121112;23;20030;-51
2022/08/16 01:29:56;;;;;;;84.97;32.83;;;;;;;;;;6121164;23;20072;-53
2022/08/16 01:32:31;;;;;;;64.07;33.42;;;;;;;;;;6120383;23;20026;-47
2022/08/16 01:35:01;;;;;;;125.05;44.58;;;;;;;;;;6121806;23;20025;-50
2022/08/16 01:37:29;;;;;;;62.33;35.80;;;;;;;;;;6120958;23;20077;-55
2022/08/16 01:40:04;;;;;;;71.68;37.78;;;;;;;;;;6121365;23;20025;-49
2022/08/16 01:42:33;;;;;;;242.80;45.65;;;;;;;;;;6120512;23;20471;-51
2022/08/16 01:45:00;;;;;;;144.95;45.53;;;;;;;;;;6119640;23;20670;-68
2022/08/16 01:47:41;;;;;;;498.25;55.67;;;;;;;;;;6121316;23;20026;-59
2022/08/16 01:50:17;;;;;;;297.77;50.42;;;;;;;;;;6121048;23;20021;-59
2022/08/16 01:53:11;;;;;;;523.95;52.85;;;;;;;;;;6120300;23;20022;-59
2022/08/16 01:55:40;;;;;;;91.53;36.38;;;;;;;;;;6120938;23;20615;-59
2022/08/16 01:58:20;;;;;;;526.00;51.25;;;;;;;;;;6121113;23;20057;-59
2022/08/16 02:00:48;;;;;;;95.70;37.33;;;;;;;;;;6095224;23;20033;-59
2022/08/16 02:03:22;;;;;;;91.05;40.05;;;;;;;;;;6121127;23;20022;-71
2022/08/16 02:05:52;;;;;;;143.55;44.50;;;;;;;;;;6121277;23;20021;-63
2022/08/16 02:08:19;;;;;;;357.00;49.90;;;;;;;;;;6120672;23;20053;-50
2022/08/16 02:11:01;;;;;;;847.45;63.50;;;;;;;;;;6119443;23;20028;-51
2022/08/16 02:13:29;;;;;;;1151.15;84.38;;;;;;;;;;6120000;23;20077;-50
2022/08/16 02:16:08;;;;;;;341.38;52.05;;;;;;;;;;6120320;23;20018;-49
2022/08/16 02:18:45;;;;;;;74.28;40.28;;;;;;;;;;6119239;23;20029;-54
2022/08/16 02:21:19;;;;;;;518.25;59.15;;;;;;;;;;6120908;23;20061;-53
2022/08/16 02:23:58;;;;;;;554.35;59.88;;;;;;;;;;6120339;23;20037;-53
2022/08/16 02:26:52;;;;;;;653.83;59.63;;;;;;;;;;6120122;23;20026;-50
2022/08/16 02:29:20;;;;;;;760.92;65.88;;;;;;;;;;6120312;23;20096;-49
2022/08/16 02:31:58;;;;;;;890.60;68.87;;;;;;;;;;6121144;23;20021;-50
2022/08/16 02:34:31;;;;;;;373.27;45.72;;;;;;;;;;6120523;23;20253;-51
2022/08/16 02:37:07;;;;;;;62.55;29.67;;;;;;;;;;6121262;23;20056;-49
2022/08/16 02:39:34;;;;;;;73.10;34.83;;;;;;;;;;6120342;23;20053;-48
2022/08/16 02:42:02;;;;;;;75.35;44.65;;;;;;;;;;6120836;23;20081;-70
2022/08/16 02:44:50;;;;;;;71.75;43.00;;;;;;;;;;6119251;23;20045;-64
2022/08/16 02:47:24;;;;;;;78.55;45.97;;;;;;;;;;6119371;23;20490;-65
2022/08/16 02:50:19;;;;;;;108.68;51.10;;;;;;;;;;6120076;23;20117;-64
2022/08/16 02:53:06;;;;;;;609.45;70.78;;;;;;;;;;6120158;23;20120;-64
2022/08/16 02:55:44;;;;;;;750.92;75.32;;;;;;;;;;6120674;23;20022;-63
2022/08/16 02:58:16;;;;;;;193.40;54.95;;;;;;;;;;6120910;23;20029;-63
2022/08/16 03:00:51;;;;;;;78.45;41.25;;;;;;;;;;6119553;23;20022;-60
2022/08/16 03:03:18;;;;;;;268.02;57.63;;;;;;;;;;6119747;23;20108;-55
2022/08/16 03:05:47;;;;;;;245.30;56.03;;;;;;;;;;6120034;23;20030;-59
2022/08/16 03:08:21;;;;;;;100.38;47.08;;;;;;;;;;6118005;23;20029;-60
2022/08/16 03:11:09;;;;;;;84.60;41.88;;;;;;;;;;6118600;23;20506;-59
2022/08/16 03:13:49;;;;;;;92.68;45.80;;;;;;;;;;6119520;23;20029;-60
2022/08/16 03:16:17;;;;;;;94.45;46.28;;;;;;;;;;6120334;23;20022;-60
2022/08/16 03:19:08;;;;;;;344.13;53.97;;;;;;;;;;6119314;23;20337;-61
2022/08/16 03:21:36;;;;;;;176.90;48.58;;;;;;;;;;6120395;23;20037;-58
2022/08/16 03:24:09;;;;;;;85.28;42.75;;;;;;;;;;6119258;23;20026;-63
2022/08/16 03:26:57;;;;;;;760.72;73.35;;;;;;;;;;6120114;23;20026;-63
2022/08/16 03:29:32;;;;;;;397.23;56.08;;;;;;;;;;6118954;23;20030;-63
2022/08/16 03:32:00;;;;;;;;;;;;;;;;;;6119837;23;20472;-62
2022/08/16 03:34:28;;;;;;;73.68;40.80;;;;;;;;;;6118941;23;20011;-63
2022/08/16 03:37:03;;;;;;;78.72;41.45;;;;;;;;;;6120332;23;20053;-63
2022/08/16 03:39:31;;;;;;;75.22;40.92;;;;;;;;;;6120610;23;20030;-56
2022/08/16 03:42:08;;;;;;;81.33;41.93;;;;;;;;;;6121069;23;20044;-63
2022/08/16 03:44:53;;;;;;;85.90;44.63;;;;;;;;;;6118958;23;20277;-63
2022/08/16 03:47:29;;;;;;;98.65;45.47;;;;;;;;;;6118375;23;20081;-62
2022/08/16 03:50:07;;;;;;;79.07;41.92;;;;;;;;;;6118126;23;20021;-63
2022/08/16 03:52:52;;;;;;;79.22;40.83;;;;;;;;;;6119270;23;20026;-63
2022/08/16 03:55:32;;;;;;;84.45;42.30;;;;;;;;;;6118008;23;20084;-63
2022/08/16 03:58:11;;;;;;;100.82;43.58;;;;;;;;;;6118441;23;20456;-48
2022/08/16 04:00:47;;;;;;;94.22;41.65;;;;;;;;;;6119946;23;20669;-59
2022/08/16 04:03:25;;;;;;;82.40;42.90;;;;;;;;;;6120414;23;20072;-59
2022/08/16 04:05:59;;;;;;;81.65;43.15;;;;;;;;;;6119761;23;20499;-60
2022/08/16 04:08:30;;;;;;;81.68;41.70;;;;;;;;;;6121351;23;20040;-60
2022/08/16 04:11:02;;;;;;;90.40;44.67;;;;;;;;;;6121293;23;20022;-60
2022/08/16 04:13:36;;;;;;;84.13;46.47;;;;;;;;;;6120876;23;20036;-59
2022/08/16 04:16:24;;;;;;;91.63;48.17;;;;;;;;;;6120812;23;20432;-56
2022/08/16 04:18:58;;;;;;;103.40;48.10;;;;;;;;;;6119027;23;20030;-57
2022/08/16 04:21:34;;;;;;;95.93;44.22;;;;;;;;;;6120231;23;20037;-68
2022/08/16 04:24:13;;;;;;;95.88;46.75;;;;;;;;;;6120416;23;20426;-68
2022/08/16 04:26:41;;;;;;;;;;;;;;;;;;6117719;23;20026;-69
2022/08/16 04:29:15;;;;;;;97.00;47.45;;;;;;;;;;6116038;23;19948;-68
2022/08/16 04:31:52;;;;;;;78.45;45.92;;;;;;;;;;6117334;23;20626;-68
2022/08/16 04:34:30;;;;;;;79.75;44.70;;;;;;;;;;6119711;23;20038;-68
2022/08/16 04:36:59;;;;;;;97.68;47.75;;;;;;;;;;6120591;23;20034;-59
2022/08/16 04:39:33;;;;;;;84.07;43.42;;;;;;;;;;6115911;23;20033;-50
2022/08/16 04:42:14;;;;;;;89.90;45.17;;;;;;;;;;6118621;23;20030;-50
2022/08/16 04:44:58;;;;;;;73.00;43.92;;;;;;;;;;6118024;23;20795;-52
2022/08/16 04:47:34;;;;;;;83.65;45.95;;;;;;;;;;6118633;23;20026;-50
2022/08/16 04:50:12;;;;;;;73.47;44.85;;;;;;;;;;6118672;23;20129;-50
2022/08/16 04:52:41;;;;;;;91.45;49.42;;;;;;;;;;6120604;23;20026;-48
2022/08/16 04:55:20;;;;;;;79.80;45.88;;;;;;;;;;6120171;23;20022;-50
2022/08/16 04:57:58;;;;;;;129.75;56.35;;;;;;;;;;6119898;23;20089;-68
2022/08/16 05:00:52;;;;;;;80.45;46.55;;;;;;;;;;6118255;23;20100;-68
2022/08/16 05:03:20;;;;;;;80.40;45.08;;;;;;;;;;6121039;23;20359;-69
2022/08/16 05:05:54;;;;;;;78.38;48.05;;;;;;;;;;6120623;23;20044;-69
2022/08/16 05:08:31;;;;;;;84.97;48.13;;;;;;;;;;6121478;23;20057;-68
2022/08/16 05:11:14;;;;;;;89.80;47.70;;;;;;;;;;6122053;23;20061;-68
2022/08/16 05:13:45;;;;;;;75.50;46.00;;;;;;;;;;6122769;23;20701;-64
2022/08/16 05:16:32;;;;;;;;;;;;;;;;;;6122588;23;20118;-67
2022/08/16 05:19:03;;;;;;;75.00;45.40;;;;;;;;;;6122327;23;19964;-54
2022/08/16 05:21:42;;;;;;;99.65;49.78;;;;;;;;;;6123037;23;20042;-46
2022/08/16 05:24:09;;;;;;;665.55;75.28;;;;;;;;;;6122865;23;20025;-47
2022/08/16 05:26:37;;;;;;;73.10;44.70;;;;;;;;;;6123098;23;20029;-48
2022/08/16 05:29:17;;;;;;;79.72;47.25;;;;;;;;;;6122400;23;20053;-51
2022/08/16 05:31:47;;;;;;;86.03;49.28;;;;;;;;;;6122944;23;20404;-47
2022/08/16 05:34:21;;;;;;;67.72;46.58;;;;;;;;;;6123072;23;20487;-63
2022/08/16 05:36:49;;;;;;;74.47;47.17;;;;;;;;;;6123014;23;20030;-59
2022/08/16 05:39:18;;;;;;;73.93;45.53;;;;;;;;;;6123017;23;20073;-60
2022/08/16 05:41:52;;;;;;;60.20;39.65;;;;;;;;;;6122902;23;20025;-55
2022/08/16 05:44:19;;;;;;;;;;;;;;;;;;6123043;23;20399;-57
2022/08/16 05:46:50;;;;;;;66.30;42.75;;;;;;;;;;6120592;23;19967;-53
2022/08/16 05:49:30;;;;;;;64.40;43.05;;;;;;;;;;6122361;23;20025;-59
2022/08/16 05:52:06;;;;;;;64.13;42.25;;;;;;;;;;6122730;23;20487;-49
2022/08/16 05:54:46;;;;;;;61.75;40.03;;;;;;;;;;6123057;23;20022;-58
2022/08/16 05:57:28;;;;;;;62.33;40.70;;;;;;;;;;6122214;23;20175;-68
2022/08/16 06:00:04;;;;;;;63.28;40.78;;;;;;;;;;6122231;23;20073;-67
2022/08/16 06:02:35;;;;;;;62.85;39.22;;;;;;;;;;6122587;23;20392;-68
2022/08/16 06:05:09;;;;;;;54.92;38.65;;;;;;;;;;6122688;23;20097;-68
2022/08/16 06:07:40;;;;;;;40.20;24.25;;;;;;;;;;6122556;23;20029;-68
2022/08/16 06:10:09;;;;;;;36.58;24.42;;;;;;;;;;6123000;23;20026;-68
2022/08/16 06:12:59;;;;;;;34.35;25.13;;;;;;;;;;6122710;23;20056;-60
2022/08/16 06:15:26;;;;;;;37.60;30.33;;;;;;;;;;6122372;23;20073;-50
2022/08/16 06:18:01;;;;;;;47.90;32.33;;;;;;;;;;6122104;23;20476;-49
2022/08/16 06:20:28;;;;;;;24.38;12.80;;;;;;;;;;6123023;23;20030;-52
2022/08/16 06:23:02;;;;;;;43.95;31.88;;;;;;;;;;6122427;23;20033;-50
2022/08/16 06:25:43;;;;;;;39.88;30.25;;;;;;;;;;6120787;23;20450;-51
2022/08/16 06:28:19;;;;;;;37.95;29.90;;;;;;;;;;6121288;23;20358;-50
2022/08/16 06:31:03;;;;;;;40.55;28.95;;;;;;;;;;6121420;23;20554;-67
2022/08/16 06:33:31;;;;;;;34.13;27.80;;;;;;;;;;6122081;23;20060;-54
2022/08/16 06:36:08;;;;;;;41.60;34.17;;;;;;;;;;6120900;23;20060;-50
2022/08/16 06:38:37;;;;;;;32.83;28.40;;;;;;;;;;6122458;23;20028;-55
2022/08/16 06:41:21;;;;;;;37.67;31.45;;;;;;;;;;6121763;23;20026;-49
2022/08/16 06:44:06;;;;;;;19.15;11.95;;;;;;;;;;6121452;23;20034;-55
2022/08/16 06:46:54;;;;;;;31.70;24.38;;;;;;;;;;6119074;23;20396;-54
2022/08/16 06:49:35;;;;;;;27.63;23.00;;;;;;;;;;6121112;23;20029;-63
2022/08/16 06:52:03;;;;;;;21.85;19.55;;;;;;;;;;6121234;23;20029;-68
2022/08/16 06:54:57;;;;;;;25.52;20.65;;;;;;;;;;6120855;23;20105;-56
2022/08/16 06:57:24;;;;;;;22.92;20.25;;;;;;;;;;6120121;23;20022;-57
2022/08/16 07:00:12;;;;;;;25.05;18.80;;;;;;;;;;6121148;23;20096;-57
2022/08/16 07:02:52;;;;;;;23.17;19.90;;;;;;;;;;6121987;23;20034;-53
2022/08/16 07:05:30;;;;;;;28.52;18.95;;;;;;;;;;6120024;23;20033;-54
2022/08/16 07:08:10;;;;;;;25.58;19.70;;;;;;;;;;6120745;23;20529;-59
2022/08/16 07:10:45;;;;;;;24.17;20.13;;;;;;;;;;6122433;23;20036;-68
2022/08/16 07:13:14;;;;;;;26.95;19.33;;;;;;;;;;6121461;23;20022;-50
2022/08/16 07:16:02;;;;;;;27.05;20.85;;;;;;;;;;6120854;23;20434;-54
2022/08/16 07:18:36;;;;;;;20.63;14.30;;;;;;;;;;6120906;23;20022;-53
2022/08/16 07:21:24;;;;;;;16.20;13.35;;;;;;;;;;6120632;23;20101;-54
2022/08/16 07:24:19;;;;;;;24.48;19.33;;;;;;;;;;6121126;23;20109;-53
2022/08/16 07:26:56;;;;;;;22.15;18.02;;;;;;;;;;6120998;23;20090;-55
2022/08/16 07:29:34;;;;;;;22.70;17.23;;;;;;;;;;6098056;23;20133;-60
2022/08/16 07:32:01;;;;;;;21.70;17.10;;;;;;;;;;6120399;23;20045;-56
2022/08/16 07:34:29;;;;;;;20.48;16.17;;;;;;;;;;6120711;23;20030;-56
2022/08/16 07:37:14;;;;;;;19.95;15.50;;;;;;;;;;6121814;23;20037;-57
2022/08/16 07:39:43;;;;;;;19.70;15.30;;;;;;;;;;6121713;23;20022;-57
2022/08/16 07:42:17;;;;;;;19.33;15.02;;;;;;;;;;6120539;23;20497;-55
2022/08/16 07:45:01;;;;;;;18.17;14.88;;;;;;;;;;6119648;23;20018;-54
2022/08/16 07:47:43;;;;;;;18.20;15.52;;;;;;;;;;6122498;23;20018;-58
2022/08/16 07:50:13;;;;;;;11.35;8.77;;;;;;;;;;6121649;23;20032;-51
2022/08/16 07:53:07;;;;;;;15.43;9.07;;;;;;;;;;6121387;23;20101;-52
2022/08/16 07:55:35;;;;;;;;;;;;;;;;;;6119876;23;20026;-53
2022/08/16 07:58:12;;;;;;;11.05;8.23;;;;;;;;;;6120003;23;20239;-52
2022/08/16 08:00:44;;;;;;;10.65;8.25;;;;;;;;;;6121109;23;20026;-51
2022/08/16 08:03:18;;;;;;;12.68;7.63;;;;;;;;;;6120889;23;20029;-54
2022/08/16 08:05:47;;;;;;;13.30;7.85;;;;;;;;;;6120777;23;20468;-65
2022/08/16 08:08:16;;;;;;;15.93;12.75;;;;;;;;;;6120890;23;20053;-49
2022/08/16 08:11:11;;;;;;;15.75;12.60;;;;;;;;;;6119490;23;20072;-51
2022/08/16 08:13:44;;;;;;;16.75;11.60;;;;;;;;;;6120968;23;20101;-56
2022/08/16 08:16:20;;;;;;;13.93;12.00;;;;;;;;;;6121937;23;20017;-54
2022/08/16 08:18:50;;;;;;;15.02;12.98;;;;;;;;;;6122443;23;20026;-52
2022/08/16 08:21:26;;;;;;;21.17;12.75;;;;;;;;;;6121873;23;20025;-56
2022/08/16 08:24:22;;;;;;;12.98;11.68;;;;;;;;;;6121141;23;20095;-49
2022/08/16 08:26:59;;;;;;;13.15;11.73;;;;;;;;;;6121469;23;20065;-69
2022/08/16 08:29:34;;;;;;;14.23;11.75;;;;;;;;;;6121693;23;20026;-49
2022/08/16 08:32:06;;;;;;;15.65;12.27;;;;;;;;;;6121690;23;20341;-49
2022/08/16 08:35:01;;;;;;;13.45;12.05;;;;;;;;;;6120649;23;20426;-49
2022/08/16 08:37:30;;;;;;;12.50;11.20;;;;;;;;;;6121245;23;20472;-53
2022/08/16 08:40:22;;;;;;;14.63;12.05;;;;;;;;;;6122170;23;20022;-53
2022/08/16 08:42:52;;;;;;;13.70;12.30;;;;;;;;;;6123303;23;20104;-67
2022/08/16 08:45:43;;;;;;;13.68;11.25;;;;;;;;;;6120884;23;20028;-63
2022/08/16 08:48:14;;;;;;;12.13;10.65;;;;;;;;;;6122262;23;20467;-67
2022/08/16 08:51:03;;;;;;;;;;;;;;;;;;6122133;23;20665;-68
2022/08/16 08:53:32;;;;;;;15.73;10.98;;;;;;;;;;6122494;23;20730;-68
2022/08/16 08:56:06;;;;;;;16.25;10.52;;;;;;;;;;6123433;23;20026;-68
2022/08/16 08:58:51;;;;;;;16.80;11.30;;;;;;;;;;6123302;23;20511;-68
2022/08/16 09:01:33;;;;;;;13.95;10.65;;;;;;;;;;6122876;23;20026;-51
2022/08/16 09:04:03;;;;;;;15.10;11.15;;;;;;;;;;6123406;23;20018;-53
2022/08/16 09:06:43;;;;;;;12.65;10.68;;;;;;;;;;6123290;23;20104;-53
2022/08/16 09:09:11;;;;;;;16.10;11.93;;;;;;;;;;6122921;23;20054;-53
2022/08/16 09:11:45;;;;;;;11.25;10.02;;;;;;;;;;6122188;23;20502;-50
2022/08/16 09:14:32;;;;;;;11.90;10.50;;;;;;;;;;6123085;23;20049;-51
2022/08/16 09:17:17;;;;;;;14.93;10.45;;;;;;;;;;6123229;23;20025;-51
2022/08/16 09:20:05;;;;;;;12.70;10.20;;;;;;;;;;6122035;23;20024;-49
2022/08/16 09:22:39;;;;;;;12.60;11.43;;;;;;;;;;6123455;23;20749;-62
2022/08/16 09:25:09;;;;;;;15.45;11.45;;;;;;;;;;6123160;23;20026;-60
2022/08/16 09:27:39;;;;;;;17.42;11.30;;;;;;;;;;6123006;23;20030;-60
2022/08/16 09:30:27;;;;;;;15.32;10.88;;;;;;;;;;6122280;23;20033;-59
2022/08/16 09:33:01;;;;;;;11.98;10.70;;;;;;;;;;6123445;23;20025;-59
2022/08/16 09:35:36;;;;;;;13.55;10.57;;;;;;;;;;6123141;23;20022;-60
2022/08/16 09:38:05;;;;;;;13.00;10.88;;;;;;;;;;6122826;23;20025;-60
2022/08/16 09:40:35;;;;;;;14.70;10.43;;;;;;;;;;6122786;23;20030;-46
2022/08/16 09:43:11;;;;;;;11.45;10.27;;;;;;;;;;6123512;23;20534;-45
2022/08/16 09:46:06;;;;;;;15.02;10.27;;;;;;;;;;6120568;23;20040;-50
2022/08/16 09:49:06;;;;;;;11.90;10.43;;;;;;;;;;6121365;23;20100;-47
2022/08/16 09:51:34;;;;;;;14.75;10.60;;;;;;;;;;6122691;23;20081;-47
2022/08/16 09:54:12;;;;;;;12.32;10.80;;;;;;;;;;6121901;23;20029;-50
2022/08/16 09:56:43;;;;;;;15.40;11.30;;;;;;;;;;6122317;23;20046;-50
2022/08/16 09:59:20;;;;;;;11.73;9.82;;;;;;;;;;6121418;23;20440;-59
2022/08/16 10:01:49;;;;;;;17.23;10.65;;;;;;;;;;6122538;23;20089;-55
2022/08/16 10:04:25;;;;;;;14.75;10.32;;;;;;;;;;6122283;23;20483;-48
2022/08/16 10:07:02;;;;;;;17.50;10.95;;;;;;;;;;6120976;23;20022;-46
2022/08/16 10:09:41;;;;;;;16.02;10.60;;;;;;;;;;6122034;23;20022;-47
2022/08/16 10:15:22;;;;;;;14.25;10.77;;;;;;;;;;6121825;23;20069;-50
2022/08/16 10:17:52;;;;;;;13.90;10.80;;;;;;;;;;6121954;23;20082;-59
2022/08/16 10:20:46;;;;;;;12.68;10.98;;;;;;;;;;6121061;23;20114;-55
2022/08/16 10:23:16;;;;;;;14.70;10.75;;;;;;;;;;6121676;23;20026;-59
2022/08/16 10:25:51;;;;;;;16.98;11.00;;;;;;;;;;6121416;23;20494;-59
2022/08/16 10:28:38;;;;;;;11.75;10.55;;;;;;;;;;6121158;23;20410;-58
2022/08/16 10:31:16;;;;;;;18.52;11.73;;;;;;;;;;6121715;23;20033;-59
2022/08/16 10:34:03;;;;;;;13.20;10.23;;;;;;;;;;6121196;23;20324;-57
2022/08/16 10:36:57;;;;;;;19.55;11.70;;;;;;;;;;6121047;23;20101;-55
2022/08/16 10:39:24;;;;;;;13.50;10.43;;;;;;;;;;6121902;23;20029;-61
2022/08/16 10:42:08;;;;;;;16.13;10.38;;;;;;;;;;6121006;23;20018;-61
2022/08/16 10:44:35;;;;;;;15.73;10.88;;;;;;;;;;6122351;23;20026;-61
2022/08/16 10:47:34;;;;;;;21.23;12.18;;;;;;;;;;6119440;23;20026;-61
2022/08/16 10:50:05;;;;;;;16.90;11.52;;;;;;;;;;6121519;23;20026;-61
2022/08/16 10:52:46;;;;;;;19.20;11.88;;;;;;;;;;6122263;23;20096;-61
2022/08/16 10:55:16;;;;;;;15.38;11.32;;;;;;;;;;6120880;23;20034;-61
2022/08/16 10:58:18;;;;;;;16.98;12.00;;;;;;;;;;6121149;23;20530;-60
2022/08/16 11:01:01;;;;;;;14.98;10.68;;;;;;;;;;6120116;23;20022;-49
2022/08/16 11:03:55;;;;;;;16.80;11.52;;;;;;;;;;6121364;23;20114;-51
2022/08/16 11:06:24;;;;;;;12.93;10.60;;;;;;;;;;6121708;23;20028;-51
2022/08/16 11:08:58;;;;;;;14.15;11.00;;;;;;;;;;6120932;23;20660;-50
2022/08/16 11:11:45;;;;;;;13.18;10.60;;;;;;;;;;6121262;23;20049;-49
2022/08/16 11:14:39;;;;;;;17.42;11.50;;;;;;;;;;6121616;23;20105;-51
2022/08/16 11:17:26;;;;;;;17.95;11.50;;;;;;;;;;6120981;23;20121;-59
2022/08/16 11:20:00;;;;;;;18.08;11.77;;;;;;;;;;6121575;23;20367;-57
2022/08/16 11:22:48;;;;;;;21.38;12.30;;;;;;;;;;6120753;23;20424;-58
2022/08/16 11:25:25;;;;;;;14.90;12.75;;;;;;;;;;6121028;23;20708;-59
2022/08/16 11:28:13;;;;;;;15.88;12.50;;;;;;;;;;6121179;23;20018;-59
2022/08/16 11:31:07;;;;;;;17.95;12.85;;;;;;;;;;6120659;23;20192;-57
2022/08/16 11:33:34;;;;;;;15.23;12.80;;;;;;;;;;6122135;23;20435;-57
2022/08/16 11:36:24;;;;;;;15.52;13.68;;;;;;;;;;6121289;23;20029;-59
2022/08/16 11:38:55;;;;;;;18.08;13.52;;;;;;;;;;6121334;23;20029;-59
2022/08/16 11:41:33;;;;;;;19.30;14.10;;;;;;;;;;6122290;23;20029;-58
2022/08/16 11:44:00;;;;;;;16.73;13.65;;;;;;;;;;6121962;23;20033;-58
2022/08/16 11:46:29;;;;;;;18.98;14.98;;;;;;;;;;6118948;23;20022;-60
2022/08/16 11:49:12;;;;;;;18.65;15.43;;;;;;;;;;6120277;23;20053;-59
2022/08/16 11:51:42;;;;;;;18.90;13.95;;;;;;;;;;6121758;23;20022;-59
2022/08/16 11:54:16;;;;;;;22.00;14.70;;;;;;;;;;6119950;23;20021;-46
2022/08/16 11:56:50;;;;;;;22.48;14.93;;;;;;;;;;6121320;23;20037;-60
2022/08/16 11:59:26;;;;;;;16.80;14.98;;;;;;;;;;6122154;23;20045;-57
2022/08/16 12:01:57;;;;;;;17.48;14.07;;;;;;;;;;6121305;23;20044;-59
2022/08/16 12:04:52;;;;;;;15.05;13.20;;;;;;;;;;6121341;23;20018;-59
2022/08/16 12:07:20;;;;;;;19.45;13.90;;;;;;;;;;6121770;23;20030;-60
2022/08/16 12:09:54;;;;;;;18.27;12.85;;;;;;;;;;6121870;23;20065;-60
2022/08/16 12:12:22;;;;;;;15.50;11.98;;;;;;;;;;6096462;23;20092;-57
2022/08/16 12:14:50;;;;;;;16.80;10.95;;;;;;;;;;6122988;23;20026;-55
2022/08/16 12:17:27;;;;;;;17.88;11.88;;;;;;;;;;6123301;23;20018;-67
2022/08/16 12:19:58;;;;;;;20.65;11.27;;;;;;;;;;6122270;23;20033;-66
2022/08/16 12:22:33;;;;;;;16.42;11.57;;;;;;;;;;6123506;23;20120;-65
2022/08/16 12:25:06;;;;;;;14.20;11.07;;;;;;;;;;6122923;23;20093;-66
2022/08/16 12:27:43;;;;;;;15.23;10.98;;;;;;;;;;6123210;23;20121;-67
2022/08/16 12:30:15;;;;;;;20.58;11.88;;;;;;;;;;6122806;23;20102;-65
2022/08/16 12:32:58;;;;;;;14.75;10.73;;;;;;;;;;6122278;23;20348;-58
2022/08/16 12:35:30;;;;;;;12.98;10.00;;;;;;;;;;6122799;23;20133;-62
2022/08/16 12:38:04;;;;;;;19.17;10.52;;;;;;;;;;6122742;23;20355;-64
2022/08/16 12:40:53;;;;;;;18.57;11.23;;;;;;;;;;6122726;23;20096;-62
2022/08/16 12:43:27;;;;;;;16.88;10.70;;;;;;;;;;6123415;23;20026;-62
2022/08/16 12:46:03;;;;;;;14.20;10.00;;;;;;;;;;6120387;23;20029;-64
2022/08/16 12:48:58;;;;;;;15.63;11.07;;;;;;;;;;6123852;23;20093;-65
2022/08/16 12:51:36;;;;;;;15.93;12.00;;;;;;;;;;6121829;23;20463;-64
2022/08/16 12:54:26;;;;;;;18.85;12.15;;;;;;;;;;6123180;23;20253;-59
2022/08/16 12:56:53;;;;;;;;;;;;;;;;;;6123912;23;20057;-58
2022/08/16 12:59:27;;;;;;;15.95;11.60;;;;;;;;;;6123564;23;19921;-59
2022/08/16 13:01:59;;;;;;;12.98;11.70;;;;;;;;;;6122863;23;20050;-60
2022/08/16 13:04:31;;;;;;;14.35;10.85;;;;;;;;;;6123422;23;20030;-59
2022/08/16 13:07:07;;;;;;;16.35;10.13;;;;;;;;;;6123389;23;20102;-60
2022/08/16 13:09:41;;;;;;;11.23;9.10;;;;;;;;;;6123303;23;20431;-68
2022/08/16 13:12:18;;;;;;;11.10;7.38;;;;;;;;;;6121961;23;20026;-72
2022/08/16 13:14:47;;;;;;;10.35;8.20;;;;;;;;;;6122796;23;20053;-55
2022/08/16 13:17:18;;;;;;;17.52;9.95;;;;;;;;;;6121511;23;20049;-55
2022/08/16 13:19:56;;;;;;;18.98;11.77;;;;;;;;;;6122253;23;20117;-58
2022/08/16 13:22:42;;;;;;;14.27;8.75;;;;;;;;;;6121552;23;20026;-57
2022/08/16 13:25:18;;;;;;;11.70;7.22;;;;;;;;;;6121956;23;20057;-59
2022/08/16 13:27:48;;;;;;;11.73;7.93;;;;;;;;;;6122476;23;20025;-58
2022/08/16 13:30:31;;;;;;;14.20;7.97;;;;;;;;;;6123212;23;20022;-57
2022/08/16 13:33:09;;;;;;;14.50;9.95;;;;;;;;;;6121953;23;20018;-47
2022/08/16 13:35:43;;;;;;;13.00;9.88;;;;;;;;;;6122609;23;20065;-46
2022/08/16 13:38:22;;;;;;;12.88;10.55;;;;;;;;;;6122466;23;20704;-46
2022/08/16 13:40:52;;;;;;;17.92;10.90;;;;;;;;;;6122764;23;20148;-46
2022/08/16 13:43:34;;;;;;;18.15;11.25;;;;;;;;;;6122725;23;20033;-45
2022/08/16 13:46:08;;;;;;;;;;;;;;;;;;6120791;23;20032;-48
2022/08/16 13:48:48;;;;;;;11.95;7.50;;;;;;;;;;6122580;23;19964;-71
2022/08/16 13:51:18;;;;;;;6.93;6.13;;;;;;;;;;6121864;23;20026;-48
2022/08/16 13:53:57;;;;;;;14.75;7.10;;;;;;;;;;6121907;23;20045;-51
2022/08/16 13:56:32;;;;;;;8.07;6.10;;;;;;;;;;6121655;23;20084;-51
2022/08/16 13:59:12;;;;;;;9.70;6.93;;;;;;;;;;6122398;23;20026;-53
2022/08/16 14:01:47;;;;;;;9.20;7.43;;;;;;;;;;6122406;23;20021;-51
2022/08/16 14:04:30;;;;;;;10.30;6.57;;;;;;;;;;6121966;23;20371;-52
2022/08/16 14:06:58;;;;;;;8.48;6.70;;;;;;;;;;6120719;23;20022;-51
2022/08/16 14:09:33;;;;;;;9.32;7.28;;;;;;;;;;6122299;23;20069;-64
2022/08/16 14:12:00;;;;;;;7.53;6.70;;;;;;;;;;6121368;23;20456;-58
2022/08/16 14:14:36;;;;;;;12.07;8.00;;;;;;;;;;6121072;23;20033;-57
2022/08/16 14:17:10;;;;;;;12.02;8.15;;;;;;;;;;6121656;23;20104;-57
2022/08/16 14:19:37;;;;;;;8.88;7.97;;;;;;;;;;6122538;23;20085;-58
2022/08/16 14:22:15;;;;;;;8.40;7.45;;;;;;;;;;6121511;23;20072;-58
2022/08/16 14:24:58;;;;;;;12.05;7.82;;;;;;;;;;6121699;23;20487;-58
2022/08/16 14:27:26;;;;;;;13.13;7.22;;;;;;;;;;6121532;23;20026;-50
2022/08/16 14:30:05;;;;;;;10.35;8.15;;;;;;;;;;6120704;23;20069;-67
2022/08/16 14:32:33;;;;;;;9.75;8.18;;;;;;;;;;6121447;23;20053;-66
2022/08/16 14:35:10;;;;;;;11.35;8.35;;;;;;;;;;6121689;23;20022;-67
2022/08/16 14:37:38;;;;;;;8.85;7.60;;;;;;;;;;6120762;23;20026;-67
2022/08/16 14:40:10;;;;;;;8.90;7.50;;;;;;;;;;6121415;23;20085;-67
2022/08/16 14:42:46;;;;;;;9.68;6.65;;;;;;;;;;6121481;23;20363;-67
2022/08/16 14:45:15;;;;;;;8.88;6.55;;;;;;;;;;6121293;23;20498;-49
2022/08/16 14:47:43;;;;;;;8.88;6.88;;;;;;;;;;6118802;23;20026;-65
2022/08/16 14:50:26;;;;;;;8.35;7.00;;;;;;;;;;6120841;23;20064;-61
2022/08/16 14:52:58;;;;;;;11.30;7.72;;;;;;;;;;6121785;23;20026;-62
2022/08/16 14:55:34;;;;;;;8.40;6.70;;;;;;;;;;6121157;23;20097;-62
2022/08/16 14:58:03;;;;;;;11.18;6.68;;;;;;;;;;6120876;23;20069;-62
2022/08/16 15:00:32;;;;;;;9.05;6.47;;;;;;;;;;6120668;23;20377;-62
2022/08/16 15:03:09;;;;;;;7.70;6.15;;;;;;;;;;6121740;23;20025;-62
2022/08/16 15:05:37;;;;;;;8.15;5.65;;;;;;;;;;6121395;23;20029;-62
2022/08/16 15:08:05;;;;;;;8.65;6.50;;;;;;;;;;6120021;23;20096;-62
2022/08/16 15:10:39;;;;;;;10.68;5.95;;;;;;;;;;6121577;23;20060;-62
2022/08/16 15:13:12;;;;;;;9.40;6.57;;;;;;;;;;6121373;23;20022;-63
2022/08/16 15:15:49;;;;;;;7.20;6.50;;;;;;;;;;6120899;23;20022;-62
2022/08/16 15:18:25;;;;;;;9.90;6.75;;;;;;;;;;6121144;23;20026;-62